createdAt,value
2022-09-13T00:06:35.352Z,1013.80
2022-09-13T00:16:42.016Z,1013.70
2022-09-13T00:26:48.078Z,1013.46
2022-09-13T00:36:54.585Z,1013.42
2022-09-13T00:47:01.027Z,1013.14
2022-09-13T00:57:08.767Z,1012.90
2022-09-13T01:07:15.265Z,1012.82
2022-09-13T01:17:21.744Z,1012.80
2022-09-13T01:27:28.079Z,1012.70
2022-09-13T01:37:34.342Z,1012.73
2022-09-13T01:47:40.954Z,1012.52
2022-09-13T01:57:48.629Z,1012.45
2022-09-13T02:07:55.326Z,1012.33
2022-09-13T02:18:01.704Z,1012.23
2022-09-13T02:28:08.290Z,1012.14
2022-09-13T02:38:15.120Z,1012.01
2022-09-13T02:48:21.905Z,1011.83
2022-09-13T02:58:28.092Z,1011.79
2022-09-13T03:08:34.867Z,1011.70
2022-09-13T03:18:41.636Z,1011.38
2022-09-13T03:28:47.974Z,1011.27
2022-09-13T03:38:54.820Z,1011.21
2022-09-13T03:49:01.443Z,1011.34
2022-09-13T03:59:07.955Z,1011.29
2022-09-13T04:09:17.149Z,1011.08
2022-09-13T04:19:24.236Z,1010.89
2022-09-13T04:29:30.777Z,1010.90
2022-09-13T04:39:36.878Z,1010.78
2022-09-13T04:49:43.529Z,1010.63
2022-09-13T04:59:50.548Z,1010.44
2022-09-13T05:09:56.576Z,1010.40
2022-09-13T05:20:03.700Z,1010.41
2022-09-13T05:30:09.889Z,1010.29
2022-09-13T05:40:16.393Z,1010.13
2022-09-13T05:50:45.070Z,1010.20
2022-09-13T06:00:33.881Z,1010.16
2022-09-13T06:10:40.352Z,1010.40
2022-09-13T06:20:46.976Z,1010.45
2022-09-13T06:30:53.986Z,1010.51
2022-09-13T06:41:00.231Z,1010.57
2022-09-13T06:51:06.877Z,1010.61
2022-09-13T07:01:12.950Z,1010.35
2022-09-13T07:11:19.208Z,1010.13
2022-09-13T07:21:25.713Z,1010.15
2022-09-13T07:31:32.031Z,1010.07
2022-09-13T07:41:39.252Z,1010.02
2022-09-13T07:51:45.776Z,1010.12
2022-09-13T08:01:52.617Z,1010.00
2022-09-13T08:11:59.979Z,1009.90
2022-09-13T08:22:06.547Z,1009.88
2022-09-13T08:32:13.313Z,1009.90
2022-09-13T08:42:19.880Z,1009.96
2022-09-13T08:52:25.848Z,1010.04
2022-09-13T09:02:31.826Z,1009.96
2022-09-13T09:12:38.603Z,1009.72
2022-09-13T09:22:44.979Z,1009.72
2022-09-13T09:32:51.981Z,1009.78
2022-09-13T09:42:58.778Z,1009.78
2022-09-13T09:53:05.410Z,1009.67
2022-09-13T10:03:12.351Z,1009.68
2022-09-13T10:13:19.486Z,1009.46
2022-09-13T10:23:26.030Z,1009.44
2022-09-13T10:33:32.877Z,1009.46
2022-09-13T10:43:39.497Z,1009.36
2022-09-13T10:53:45.882Z,1009.22
2022-09-13T11:03:52.459Z,1009.22
2022-09-13T11:13:59.295Z,1009.25
2022-09-13T11:24:05.289Z,1009.19
2022-09-13T11:34:12.014Z,1009.21
2022-09-13T11:44:18.834Z,1009.20
2022-09-13T11:54:25.911Z,1009.20
2022-09-13T12:04:33.924Z,1009.22
2022-09-13T12:14:40.725Z,1009.16
2022-09-13T12:24:47.248Z,1009.06
2022-09-13T12:34:53.970Z,1009.17
2022-09-13T12:45:00.857Z,1009.10
2022-09-13T12:55:19.616Z,1008.96
2022-09-13T13:05:20.297Z,1008.96
2022-09-13T13:15:26.916Z,1008.88
2022-09-13T13:25:34.221Z,1008.74
2022-09-13T13:35:41.054Z,1008.74
2022-09-13T13:45:48.108Z,1008.70
2022-09-13T13:55:55.196Z,1008.61
2022-09-13T14:06:01.829Z,1008.55
2022-09-13T14:16:08.282Z,1008.53
2022-09-13T14:26:14.907Z,1008.56
2022-09-13T14:36:21.939Z,1008.49
2022-09-13T14:46:29.533Z,1008.57
2022-09-13T14:56:36.725Z,1008.43
2022-09-13T15:06:43.358Z,1008.37
2022-09-13T15:16:50.471Z,1008.35
2022-09-13T15:26:57.511Z,1008.21
2022-09-13T15:37:03.978Z,1008.15
2022-09-13T15:47:11.490Z,1008.14
2022-09-13T15:57:18.265Z,1008.14
2022-09-13T16:07:25.441Z,1008.12
2022-09-13T16:17:32.444Z,1008.07
2022-09-13T16:27:39.758Z,1008.05
2022-09-13T16:37:46.560Z,1007.97
2022-09-13T16:47:53.541Z,1007.95
2022-09-13T16:58:00.822Z,1008.03
2022-09-13T17:08:07.494Z,1007.99
2022-09-13T17:18:14.570Z,1008.01
2022-09-13T17:28:21.622Z,1008.06
2022-09-13T17:38:28.835Z,1008.10
2022-09-13T17:48:35.841Z,1008.14
2022-09-13T17:58:42.784Z,1008.15
2022-09-13T18:08:49.751Z,1008.17
2022-09-13T18:18:56.851Z,1008.09
2022-09-13T18:29:04.084Z,1008.21
2022-09-13T18:39:11.169Z,1008.25
2022-09-13T18:49:18.502Z,1008.27
2022-09-13T18:59:25.283Z,1008.30
2022-09-13T19:09:32.696Z,1008.34
2022-09-13T19:19:39.400Z,1008.32
2022-09-13T19:29:46.492Z,1008.39
2022-09-13T19:39:53.635Z,1008.39
2022-09-13T19:50:00.893Z,1008.43
2022-09-13T20:00:07.301Z,1008.41
2022-09-13T20:10:14.423Z,1008.39
2022-09-13T20:20:21.306Z,1008.42
2022-09-13T20:30:28.062Z,1008.37
2022-09-13T20:40:35.525Z,1008.37
2022-09-13T20:50:42.381Z,1008.34
2022-09-13T21:00:49.207Z,1008.31
2022-09-13T21:10:56.755Z,1008.20
2022-09-13T21:21:03.491Z,1008.27
2022-09-13T21:31:10.268Z,1008.33
2022-09-13T21:41:17.504Z,1008.40
2022-09-13T21:51:24.431Z,1008.52
2022-09-13T22:01:31.417Z,1008.53
2022-09-13T22:11:38.414Z,1008.57
2022-09-13T22:21:45.082Z,1008.54
2022-09-13T22:31:52.550Z,1008.53
2022-09-13T22:41:58.652Z,1008.63
2022-09-13T22:52:05.434Z,1008.62
2022-09-13T23:02:12.632Z,1008.55
2022-09-13T23:12:19.177Z,1008.55
2022-09-13T23:22:26.002Z,1008.65
2022-09-13T23:32:32.970Z,1008.65
2022-09-13T23:42:40.124Z,1008.59
2022-09-13T23:52:46.859Z,1008.56
